sensor_id;sensor_type;location;lat;lon;timestamp;pressure;altitude;pressure_sealevel;temperature;humidity
42067;BME280;27734;47.028;28.820;2023-05-24T00:01:27;100118.47;;;17.24;70.66
42067;BME280;27734;47.028;28.820;2023-05-24T00:03:56;100122.00;;;17.24;70.91
42067;BME280;27734;47.028;28.820;2023-05-24T00:06:26;100122.91;;;17.22;71.11
42067;BME280;27734;47.028;28.820;2023-05-24T00:08:54;100119.34;;;17.21;71.25
42067;BME280;27734;47.028;28.820;2023-05-24T00:11:23;100121.11;;;17.19;71.33
42067;BME280;27734;47.028;28.820;2023-05-24T00:13:51;100118.45;;;17.16;70.72
42067;BME280;27734;47.028;28.820;2023-05-24T00:16:20;100119.33;;;17.15;70.88
42067;BME280;27734;47.028;28.820;2023-05-24T00:18:49;100126.41;;;17.15;71.19
42067;BME280;27734;47.028;28.820;2023-05-24T00:21:19;100121.10;;;17.15;71.28
42067;BME280;27734;47.028;28.820;2023-05-24T00:23:47;100121.11;;;17.18;71.18
42067;BME280;27734;47.028;28.820;2023-05-24T00:26:18;100124.64;;;17.21;71.03
42067;BME280;27734;47.028;28.820;2023-05-24T00:28:50;100116.69;;;17.21;70.89
42067;BME280;27734;47.028;28.820;2023-05-24T00:31:19;100127.30;;;17.20;71.23
42067;BME280;27734;47.028;28.820;2023-05-24T00:33:47;100121.11;;;17.16;70.97
42067;BME280;27734;47.028;28.820;2023-05-24T00:36:16;100129.92;;;17.12;71.21
42067;BME280;27734;47.028;28.820;2023-05-24T00:38:44;100128.17;;;17.10;71.31
42067;BME280;27734;47.028;28.820;2023-05-24T00:41:13;100128.17;;;17.11;71.13
42067;BME280;27734;47.028;28.820;2023-05-24T00:43:42;100116.67;;;17.15;71.40
42067;BME280;27734;47.028;28.820;2023-05-24T00:46:20;100127.30;;;17.20;71.16
42067;BME280;27734;47.028;28.820;2023-05-24T00:48:50;100120.25;;;17.20;70.98
42067;BME280;27734;47.028;28.820;2023-05-24T00:51:19;100119.34;;;17.20;70.97
42067;BME280;27734;47.028;28.820;2023-05-24T00:53:48;100121.98;;;17.17;71.09
42067;BME280;27734;47.028;28.820;2023-05-24T00:56:17;100118.45;;;17.13;71.48
42067;BME280;27734;47.028;28.820;2023-05-24T00:58:46;100124.61;;;17.09;70.89
42067;BME280;27734;47.028;28.820;2023-05-24T01:01:17;100118.42;;;17.04;71.25
42067;BME280;27734;47.028;28.820;2023-05-24T01:03:46;100118.39;;;16.98;71.30
42067;BME280;27734;47.028;28.820;2023-05-24T01:06:14;100118.37;;;16.92;71.04
42067;BME280;27734;47.028;28.820;2023-05-24T01:08:51;100120.13;;;16.86;71.65
42067;BME280;27734;47.028;28.820;2023-05-24T01:11:27;100117.41;;;16.79;71.20
42067;BME280;27734;47.028;28.820;2023-05-24T01:14:07;100119.17;;;16.74;71.19
42067;BME280;27734;47.028;28.820;2023-05-24T01:16:46;100116.50;;;16.69;71.70
42067;BME280;27734;47.028;28.820;2023-05-24T01:19:40;100107.63;;;16.65;71.67
42067;BME280;27734;47.028;28.820;2023-05-24T01:22:27;100112.94;;;16.67;71.45
42067;BME280;27734;47.028;28.820;2023-05-24T01:25:02;100112.95;;;16.70;71.87
42067;BME280;27734;47.028;28.820;2023-05-24T01:27:33;100112.95;;;16.70;71.52
42067;BME280;27734;47.028;28.820;2023-05-24T01:30:05;100114.73;;;16.71;71.97
42067;BME280;27734;47.028;28.820;2023-05-24T01:32:34;100104.13;;;16.69;71.37
42067;BME280;27734;47.028;28.820;2023-05-24T01:35:03;100109.41;;;16.68;72.02
42067;BME280;27734;47.028;28.820;2023-05-24T01:37:31;100113.83;;;16.66;72.03
42067;BME280;27734;47.028;28.820;2023-05-24T01:40:01;100104.95;;;16.59;71.97
42067;BME280;27734;47.028;28.820;2023-05-24T01:42:35;100105.81;;;16.52;72.22
42067;BME280;27734;47.028;28.820;2023-05-24T01:45:15;100105.81;;;16.50;71.87
42067;BME280;27734;47.028;28.820;2023-05-24T01:47:56;100110.20;;;16.51;72.07
42067;BME280;27734;47.028;28.820;2023-05-24T01:50:32;100108.45;;;16.50;72.33
42067;BME280;27734;47.028;28.820;2023-05-24T01:53:05;100113.75;;;16.49;72.55
42067;BME280;27734;47.028;28.820;2023-05-24T01:55:34;100112.82;;;16.45;72.33
42067;BME280;27734;47.028;28.820;2023-05-24T01:58:06;100112.82;;;16.45;72.21
42067;BME280;27734;47.028;28.820;2023-05-24T02:00:35;100113.71;;;16.43;71.85
42067;BME280;27734;47.028;28.820;2023-05-24T02:03:06;100119.84;;;16.37;71.91
42067;BME280;27734;47.028;28.820;2023-05-24T02:05:36;100118.05;;;16.33;72.04
42067;BME280;27734;47.028;28.820;2023-05-24T02:08:06;100119.77;;;16.25;72.99
42067;BME280;27734;47.028;28.820;2023-05-24T02:10:35;100112.70;;;16.21;72.85
42067;BME280;27734;47.028;28.820;2023-05-24T02:13:06;100114.39;;;16.12;73.06
42067;BME280;27734;47.028;28.820;2023-05-24T02:15:35;100119.64;;;16.06;72.82
42067;BME280;27734;47.028;28.820;2023-05-24T02:18:04;100118.73;;;16.01;72.67
42067;BME280;27734;47.028;28.820;2023-05-24T02:20:34;100117.81;;;15.96;72.89
42067;BME280;27734;47.028;28.820;2023-05-24T02:23:04;100125.72;;;15.91;73.44
42067;BME280;27734;47.028;28.820;2023-05-24T02:25:32;100125.72;;;15.91;72.85
42067;BME280;27734;47.028;28.820;2023-05-24T02:28:01;100128.35;;;15.90;73.30
42067;BME280;27734;47.028;28.820;2023-05-24T02:30:30;100131.84;;;15.86;73.21
42067;BME280;27734;47.028;28.820;2023-05-24T02:32:58;100144.15;;;15.80;74.05
42067;BME280;27734;47.028;28.820;2023-05-24T02:35:27;100152.88;;;15.76;73.67
42067;BME280;27734;47.028;28.820;2023-05-24T02:37:56;100152.01;;;15.76;73.53
42067;BME280;27734;47.028;28.820;2023-05-24T02:40:25;100148.54;;;15.77;74.36
42067;BME280;27734;47.028;28.820;2023-05-24T02:42:53;100154.72;;;15.79;73.65
42067;BME280;27734;47.028;28.820;2023-05-24T02:45:22;100162.66;;;15.79;73.66
42067;BME280;27734;47.028;28.820;2023-05-24T02:47:50;100155.63;;;15.83;73.61
42067;BME280;27734;47.028;28.820;2023-05-24T02:50:19;100158.23;;;15.79;74.01
42067;BME280;27734;47.028;28.820;2023-05-24T02:52:47;100166.09;;;15.75;74.04
42067;BME280;27734;47.028;28.820;2023-05-24T02:55:16;100158.13;;;15.72;74.96
42067;BME280;27734;47.028;28.820;2023-05-24T02:57:45;100162.55;;;15.71;73.96
42067;BME280;27734;47.028;28.820;2023-05-24T03:00:17;100164.29;;;15.68;75.44
42067;BME280;27734;47.028;28.820;2023-05-24T03:02:46;100164.26;;;15.64;74.78
42067;BME280;27734;47.028;28.820;2023-05-24T03:05:17;100164.24;;;15.63;74.32
42067;BME280;27734;47.028;28.820;2023-05-24T03:07:46;100161.59;;;15.63;75.09
42067;BME280;27734;47.028;28.820;2023-05-24T03:10:16;100164.26;;;15.64;74.83
42067;BME280;27734;47.028;28.820;2023-05-24T03:12:45;100167.78;;;15.65;75.03
42067;BME280;27734;47.028;28.820;2023-05-24T03:15:13;100168.64;;;15.64;75.77
42067;BME280;27734;47.028;28.820;2023-05-24T03:17:42;100172.17;;;15.63;75.85
42067;BME280;27734;47.028;28.820;2023-05-24T03:20:11;100170.39;;;15.62;75.99
42067;BME280;27734;47.028;28.820;2023-05-24T03:22:40;100166.89;;;15.63;75.63
42067;BME280;27734;47.028;28.820;2023-05-24T03:25:09;100175.71;;;15.65;75.79
42067;BME280;27734;47.028;28.820;2023-05-24T03:27:39;100167.80;;;15.67;75.95
42067;BME280;27734;47.028;28.820;2023-05-24T03:30:09;100171.34;;;15.70;75.78
42067;BME280;27734;47.028;28.820;2023-05-24T03:32:44;100159.13;;;15.78;76.31
42067;BME280;27734;47.028;28.820;2023-05-24T03:35:13;100158.31;;;15.89;76.21
42067;BME280;27734;47.028;28.820;2023-05-24T03:37:41;100170.77;;;15.99;75.33
42067;BME280;27734;47.028;28.820;2023-05-24T03:40:10;100169.92;;;16.06;75.75
42067;BME280;27734;47.028;28.820;2023-05-24T03:42:55;100173.56;;;16.17;76.06
42067;BME280;27734;47.028;28.820;2023-05-24T03:45:34;100169.20;;;16.26;76.26
42067;BME280;27734;47.028;28.820;2023-05-24T03:48:02;100178.95;;;16.34;76.20
42067;BME280;27734;47.028;28.820;2023-05-24T03:50:31;100170.16;;;16.39;76.21
42067;BME280;27734;47.028;28.820;2023-05-24T03:52:59;100186.12;;;16.48;75.46
42067;BME280;27734;47.028;28.820;2023-05-24T03:55:28;100179.98;;;16.52;75.87
42067;BME280;27734;47.028;28.820;2023-05-24T03:57:58;100177.36;;;16.57;75.36
42067;BME280;27734;47.028;28.820;2023-05-24T04:00:26;100173.84;;;16.62;75.62
42067;BME280;27734;47.028;28.820;2023-05-24T04:02:55;100174.77;;;16.67;75.97
42067;BME280;27734;47.028;28.820;2023-05-24T04:05:24;100180.09;;;16.72;75.43
42067;BME280;27734;47.028;28.820;2023-05-24T04:07:54;100179.22;;;16.78;75.38
42067;BME280;27734;47.028;28.820;2023-05-24T04:10:23;100180.14;;;16.81;75.66
42067;BME280;27734;47.028;28.820;2023-05-24T04:12:51;100186.39;;;16.88;75.67
42067;BME280;27734;47.028;28.820;2023-05-24T04:15:21;100188.17;;;16.97;75.34
42067;BME280;27734;47.028;28.820;2023-05-24T04:17:51;100187.34;;;17.05;75.46
42067;BME280;27734;47.028;28.820;2023-05-24T04:20:22;100182.06;;;17.12;75.17
42067;BME280;27734;47.028;28.820;2023-05-24T04:22:52;100184.75;;;17.19;75.47
42067;BME280;27734;47.028;28.820;2023-05-24T04:25:21;100184.77;;;17.25;74.88
42067;BME280;27734;47.028;28.820;2023-05-24T04:27:50;100189.21;;;17.30;74.87
42067;BME280;27734;47.028;28.820;2023-05-24T04:30:18;100190.10;;;17.35;74.74
42067;BME280;27734;47.028;28.820;2023-05-24T04:32:48;100184.80;;;17.35;74.96
42067;BME280;27734;47.028;28.820;2023-05-24T04:35:16;100192.76;;;17.36;74.89
42067;BME280;27734;47.028;28.820;2023-05-24T04:37:46;100192.76;;;17.36;74.55
42067;BME280;27734;47.028;28.820;2023-05-24T04:40:17;100193.64;;;17.40;74.57
42067;BME280;27734;47.028;28.820;2023-05-24T04:42:48;100184.81;;;17.41;74.73
42067;BME280;27734;47.028;28.820;2023-05-24T04:45:17;100192.78;;;17.44;74.63
42067;BME280;27734;47.028;28.820;2023-05-24T04:47:46;100185.71;;;17.49;74.42
42067;BME280;27734;47.028;28.820;2023-05-24T04:50:15;100189.25;;;17.54;74.21
42067;BME280;27734;47.028;28.820;2023-05-24T04:52:43;100185.75;;;17.65;74.33
42067;BME280;27734;47.028;28.820;2023-05-24T04:55:12;100192.84;;;17.72;74.27
42067;BME280;27734;47.028;28.820;2023-05-24T04:57:41;100191.07;;;17.75;74.13
42067;BME280;27734;47.028;28.820;2023-05-24T05:00:12;100182.25;;;17.86;74.25
42067;BME280;27734;47.028;28.820;2023-05-24T05:02:43;100199.09;;;17.94;74.06
42067;BME280;27734;47.028;28.820;2023-05-24T05:05:12;100192.87;;;18.04;73.76
42067;BME280;27734;47.028;28.820;2023-05-24T05:07:41;100188.48;;;18.16;73.75
42067;BME280;27734;47.028;28.820;2023-05-24T05:10:10;100193.79;;;18.25;73.56
42067;BME280;27734;47.028;28.820;2023-05-24T05:12:38;100199.09;;;18.32;73.84
42067;BME280;27734;47.028;28.820;2023-05-24T05:15:09;100201.75;;;18.42;73.15
42067;BME280;27734;47.028;28.820;2023-05-24T05:17:38;100200.83;;;18.49;72.65
42067;BME280;27734;47.028;28.820;2023-05-24T05:20:08;100198.16;;;18.58;72.62
42067;BME280;27734;47.028;28.820;2023-05-24T05:22:37;100185.73;;;18.66;72.12
42067;BME280;27734;47.028;28.820;2023-05-24T05:25:06;100202.56;;;18.76;72.63
42067;BME280;27734;47.028;28.820;2023-05-24T05:27:35;100196.34;;;18.86;72.59
42067;BME280;27734;47.028;28.820;2023-05-24T05:30:05;100199.84;;;18.98;71.98
42067;BME280;27734;47.028;28.820;2023-05-24T05:32:36;100201.57;;;19.13;72.34
42067;BME280;27734;47.028;28.820;2023-05-24T05:35:07;100199.71;;;19.30;71.98
42067;BME280;27734;47.028;28.820;2023-05-24T05:37:36;100196.08;;;19.48;71.72
42067;BME280;27734;47.028;28.820;2023-05-24T05:40:06;100196.87;;;19.64;71.51
42067;BME280;27734;47.028;28.820;2023-05-24T05:42:34;100192.34;;;19.82;71.23
42067;BME280;27734;47.028;28.820;2023-05-24T05:45:04;100200.22;;;19.97;71.13
42067;BME280;27734;47.028;28.820;2023-05-24T05:47:33;100199.22;;;20.12;70.45
42067;BME280;27734;47.028;28.820;2023-05-24T05:50:03;100205.31;;;20.26;70.19
42067;BME280;27734;47.028;28.820;2023-05-24T05:52:32;100211.38;;;20.42;69.84
42067;BME280;27734;47.028;28.820;2023-05-24T05:55:04;100213.01;;;20.59;69.50
42067;BME280;27734;47.028;28.820;2023-05-24T05:57:33;100211.99;;;20.72;68.92
42067;BME280;27734;47.028;28.820;2023-05-24T06:00:02;100207.45;;;20.83;68.90
42067;BME280;27734;47.028;28.820;2023-05-24T06:02:42;100212.61;;;20.99;68.15
42067;BME280;27734;47.028;28.820;2023-05-24T06:05:11;100209.78;;;21.10;67.67
42067;BME280;27734;47.028;28.820;2023-05-24T06:07:41;100213.19;;;21.24;67.70
42067;BME280;27734;47.028;28.820;2023-05-24T06:10:13;100215.72;;;21.35;68.03
42067;BME280;27734;47.028;28.820;2023-05-24T06:12:42;100212.94;;;21.44;67.17
42067;BME280;27734;47.028;28.820;2023-05-24T06:15:11;100212.84;;;21.53;66.90
42067;BME280;27734;47.028;28.820;2023-05-24T06:18:10;100225.98;;;21.66;66.82
42067;BME280;27734;47.028;28.820;2023-05-24T06:20:55;100209.00;;;21.71;66.60
42067;BME280;27734;47.028;28.820;2023-05-24T06:24:16;100202.66;;;21.80;66.07
42067;BME280;27734;47.028;28.820;2023-05-24T06:26:52;100208.82;;;21.84;65.72
42067;BME280;27734;47.028;28.820;2023-05-24T06:29:26;100206.95;;;21.89;64.86
42067;BME280;27734;47.028;28.820;2023-05-24T06:31:55;100211.42;;;21.88;65.25
42067;BME280;27734;47.028;28.820;2023-05-24T06:34:28;100215.03;;;21.84;64.72
42067;BME280;27734;47.028;28.820;2023-05-24T06:36:56;100211.50;;;21.84;65.06
42067;BME280;27734;47.028;28.820;2023-05-24T06:39:29;100206.98;;;21.87;64.17
42067;BME280;27734;47.028;28.820;2023-05-24T06:42:13;100200.72;;;21.90;63.70
42067;BME280;27734;47.028;28.820;2023-05-24T06:44:46;100197.92;;;21.98;64.02
42067;BME280;27734;47.028;28.820;2023-05-24T06:47:15;100206.73;;;22.03;63.81
42067;BME280;27734;47.028;28.820;2023-05-24T06:49:43;100211.19;;;22.04;63.29
42067;BME280;27734;47.028;28.820;2023-05-24T06:52:14;100203.02;;;22.13;62.96
42067;BME280;27734;47.028;28.820;2023-05-24T06:54:43;100200.25;;;22.19;62.97
42067;BME280;27734;47.028;28.820;2023-05-24T06:57:15;100201.86;;;22.28;62.61
42067;BME280;27734;47.028;28.820;2023-05-24T06:59:44;100207.93;;;22.41;62.55
42067;BME280;27734;47.028;28.820;2023-05-24T07:02:23;100214.75;;;22.57;62.20
42067;BME280;27734;47.028;28.820;2023-05-24T07:04:58;100207.31;;;22.73;62.01
42067;BME280;27734;47.028;28.820;2023-05-24T07:07:30;100216.87;;;22.87;61.92
42067;BME280;27734;47.028;28.820;2023-05-24T07:09:59;100214.80;;;23.01;61.19
42067;BME280;27734;47.028;28.820;2023-05-24T07:12:28;100218.17;;;23.14;60.54
42067;BME280;27734;47.028;28.820;2023-05-24T07:14:59;100218.75;;;23.28;59.69
42067;BME280;27734;47.028;28.820;2023-05-24T07:17:28;100223.00;;;23.37;59.58
42067;BME280;27734;47.028;28.820;2023-05-24T07:20:01;100221.84;;;23.50;59.89
42067;BME280;27734;47.028;28.820;2023-05-24T07:22:33;100219.62;;;23.69;59.98
42067;BME280;27734;47.028;28.820;2023-05-24T07:25:02;100215.72;;;23.86;59.83
42067;BME280;27734;47.028;28.820;2023-05-24T07:27:32;100214.30;;;24.07;59.25
42067;BME280;27734;47.028;28.820;2023-05-24T07:30:07;100217.20;;;24.34;58.80
42067;BME280;27734;47.028;28.820;2023-05-24T07:32:38;100220.39;;;24.50;58.79
42067;BME280;27734;47.028;28.820;2023-05-24T07:35:19;100216.43;;;24.65;58.32
42067;BME280;27734;47.028;28.820;2023-05-24T07:38:12;100225.22;;;24.71;57.00
42067;BME280;27734;47.028;28.820;2023-05-24T07:40:53;100223.94;;;24.85;57.27
42067;BME280;27734;47.028;28.820;2023-05-24T07:43:28;100228.88;;;25.00;56.63
42067;BME280;27734;47.028;28.820;2023-05-24T07:45:57;100223.90;;;25.18;56.67
42067;BME280;27734;47.028;28.820;2023-05-24T07:48:29;100222.66;;;25.31;55.64
42067;BME280;27734;47.028;28.820;2023-05-24T07:51:04;100222.25;;;25.45;55.26
42067;BME280;27734;47.028;28.820;2023-05-24T07:53:36;100235.27;;;25.59;55.47
42067;BME280;27734;47.028;28.820;2023-05-24T07:56:06;100229.52;;;25.71;54.57
42067;BME280;27734;47.028;28.820;2023-05-24T07:58:35;100226.45;;;25.82;54.45
42067;BME280;27734;47.028;28.820;2023-05-24T08:01:05;100228.53;;;26.02;53.84
42067;BME280;27734;47.028;28.820;2023-05-24T08:03:35;100223.66;;;26.15;53.67
42067;BME280;27734;47.028;28.820;2023-05-24T08:06:17;100223.76;;;26.39;52.99
42067;BME280;27734;47.028;28.820;2023-05-24T08:08:54;100224.41;;;26.45;52.21
42067;BME280;27734;47.028;28.820;2023-05-24T08:11:24;100222.44;;;26.50;52.39
42067;BME280;27734;47.028;28.820;2023-05-24T08:13:55;100222.01;;;26.63;51.94
42067;BME280;27734;47.028;28.820;2023-05-24T08:16:24;100220.47;;;26.82;51.03
42067;BME280;27734;47.028;28.820;2023-05-24T08:18:56;100217.16;;;26.99;50.57
42067;BME280;27734;47.028;28.820;2023-05-24T08:21:51;100219.23;;;27.16;50.20
42067;BME280;27734;47.028;28.820;2023-05-24T08:24:23;100219.87;;;27.23;50.18
42067;BME280;27734;47.028;28.820;2023-05-24T08:26:54;100210.92;;;27.22;50.02
42067;BME280;27734;47.028;28.820;2023-05-24T08:29:25;100217.00;;;27.28;49.00
42067;BME280;27734;47.028;28.820;2023-05-24T08:31:56;100222.07;;;27.37;48.87
42067;BME280;27734;47.028;28.820;2023-05-24T08:34:31;100217.08;;;27.50;48.94
42067;BME280;27734;47.028;28.820;2023-05-24T08:37:03;100219.71;;;27.51;47.90
42067;BME280;27734;47.028;28.820;2023-05-24T08:39:37;100219.47;;;27.57;48.10
42067;BME280;27734;47.028;28.820;2023-05-24T08:42:15;100212.91;;;27.65;47.54
42067;BME280;27734;47.028;28.820;2023-05-24T08:44:51;100211.95;;;27.66;47.36
42067;BME280;27734;47.028;28.820;2023-05-24T08:47:26;100218.61;;;27.57;46.85
42067;BME280;27734;47.028;28.820;2023-05-24T08:49:58;100216.95;;;27.53;47.46
42067;BME280;27734;47.028;28.820;2023-05-24T08:52:30;100217.09;;;27.72;46.50
42067;BME280;27734;47.028;28.820;2023-05-24T08:55:18;100221.81;;;27.89;46.18
42067;BME280;27734;47.028;28.820;2023-05-24T08:57:48;100210.22;;;27.87;44.99
42067;BME280;27734;47.028;28.820;2023-05-24T09:00:19;100207.13;;;27.97;44.71
42067;BME280;27734;47.028;28.820;2023-05-24T09:02:48;100216.02;;;28.00;43.35
42067;BME280;27734;47.028;28.820;2023-05-24T09:05:20;100211.49;;;28.00;43.00
42067;BME280;27734;47.028;28.820;2023-05-24T09:07:56;100216.23;;;27.93;42.74
42067;BME280;27734;47.028;28.820;2023-05-24T09:13:19;100216.84;;;27.56;42.20
42067;BME280;27734;47.028;28.820;2023-05-24T09:15:53;100213.96;;;27.60;41.51
42067;BME280;27734;47.028;28.820;2023-05-24T09:18:26;100203.75;;;27.69;41.39
42067;BME280;27734;47.028;28.820;2023-05-24T09:20:58;100198.95;;;27.77;41.53
42067;BME280;27734;47.028;28.820;2023-05-24T09:26:23;100204.16;;;27.82;41.51
42067;BME280;27734;47.028;28.820;2023-05-24T09:29:01;100203.87;;;27.66;41.30
42067;BME280;27734;47.028;28.820;2023-05-24T09:31:37;100205.49;;;27.48;40.97
42067;BME280;27734;47.028;28.820;2023-05-24T09:34:12;100205.04;;;27.36;39.73
42067;BME280;27734;47.028;28.820;2023-05-24T09:36:46;100202.02;;;27.44;40.51
42067;BME280;27734;47.028;28.820;2023-05-24T09:39:18;100186.27;;;27.57;39.52
42067;BME280;27734;47.028;28.820;2023-05-24T09:41:52;100195.05;;;27.84;39.86
42067;BME280;27734;47.028;28.820;2023-05-24T09:44:25;100194.80;;;27.90;40.05
42067;BME280;27734;47.028;28.820;2023-05-24T09:47:01;100196.99;;;27.80;39.58
42067;BME280;27734;47.028;28.820;2023-05-24T09:49:37;100199.20;;;27.71;39.25
42067;BME280;27734;47.028;28.820;2023-05-24T09:52:09;100196.56;;;27.69;38.84
42067;BME280;27734;47.028;28.820;2023-05-24T09:54:43;100196.37;;;27.74;39.22
42067;BME280;27734;47.028;28.820;2023-05-24T09:57:17;100200.62;;;27.79;38.76
42067;BME280;27734;47.028;28.820;2023-05-24T09:59:50;100197.86;;;27.81;38.17
42067;BME280;27734;47.028;28.820;2023-05-24T10:02:20;100193.13;;;27.88;37.78
42067;BME280;27734;47.028;28.820;2023-05-24T10:04:59;100186.04;;;28.07;38.08
42067;BME280;27734;47.028;28.820;2023-05-24T10:07:30;100182.63;;;28.24;38.06
42067;BME280;27734;47.028;28.820;2023-05-24T10:10:04;100181.38;;;28.33;37.10
42067;BME280;27734;47.028;28.820;2023-05-24T10:12:34;100185.20;;;28.48;38.09
42067;BME280;27734;47.028;28.820;2023-05-24T10:15:05;100187.40;;;28.60;37.77
42067;BME280;27734;47.028;28.820;2023-05-24T10:17:38;100181.84;;;28.43;36.40
42067;BME280;27734;47.028;28.820;2023-05-24T10:23:08;100178.23;;;28.22;37.26
42067;BME280;27734;47.028;28.820;2023-05-24T10:25:44;100170.27;;;28.19;37.04
42067;BME280;27734;47.028;28.820;2023-05-24T10:28:18;100166.25;;;28.29;37.25
42067;BME280;27734;47.028;28.820;2023-05-24T10:30:58;100170.91;;;28.46;36.92
42067;BME280;27734;47.028;28.820;2023-05-24T10:33:47;100166.67;;;28.61;36.76
42067;BME280;27734;47.028;28.820;2023-05-24T10:36:20;100159.84;;;28.52;35.89
42067;BME280;27734;47.028;28.820;2023-05-24T10:38:53;100159.98;;;28.49;35.97
42067;BME280;27734;47.028;28.820;2023-05-24T10:41:25;100160.98;;;28.46;35.60
42067;BME280;27734;47.028;28.820;2023-05-24T10:43:58;100164.62;;;28.45;34.95
42067;BME280;27734;47.028;28.820;2023-05-24T10:46:28;100151.05;;;28.47;34.92
42067;BME280;27734;47.028;28.820;2023-05-24T10:49:00;100157.71;;;28.60;34.46
42067;BME280;27734;47.028;28.820;2023-05-24T10:51:35;100146.88;;;28.81;34.61
42067;BME280;27734;47.028;28.820;2023-05-24T10:54:24;100150.64;;;28.97;34.39
42067;BME280;27734;47.028;28.820;2023-05-24T10:57:00;100144.38;;;29.16;34.62
42067;BME280;27734;47.028;28.820;2023-05-24T10:59:46;100134.75;;;29.29;34.54
42067;BME280;27734;47.028;28.820;2023-05-24T11:02:19;100139.42;;;29.45;34.49
42067;BME280;27734;47.028;28.820;2023-05-24T11:04:50;100129.81;;;29.39;34.08
42067;BME280;27734;47.028;28.820;2023-05-24T11:07:23;100128.70;;;29.24;33.52
42067;BME280;27734;47.028;28.820;2023-05-24T11:10:10;100137.79;;;29.02;33.76
42067;BME280;27734;47.028;28.820;2023-05-24T11:12:51;100130.94;;;28.95;33.57
42067;BME280;27734;47.028;28.820;2023-05-24T11:15:30;100131.95;;;28.93;33.71
42067;BME280;27734;47.028;28.820;2023-05-24T11:18:15;100129.32;;;28.91;33.49
42067;BME280;27734;47.028;28.820;2023-05-24T11:20:47;100126.04;;;28.84;33.32
42067;BME280;27734;47.028;28.820;2023-05-24T11:23:25;100127.88;;;28.63;33.52
42067;BME280;27734;47.028;28.820;2023-05-24T11:26:03;100126.84;;;28.45;33.40
42067;BME280;27734;47.028;28.820;2023-05-24T11:28:40;100131.70;;;28.37;33.70
42067;BME280;27734;47.028;28.820;2023-05-24T11:31:10;100129.41;;;28.28;33.47
42067;BME280;27734;47.028;28.820;2023-05-24T11:33:45;100125.04;;;28.46;33.70
42067;BME280;27734;47.028;28.820;2023-05-24T11:36:21;100123.94;;;28.50;33.65
42067;BME280;27734;47.028;28.820;2023-05-24T11:38:50;100122.61;;;28.40;33.49
42067;BME280;27734;47.028;28.820;2023-05-24T11:41:22;100124.51;;;28.38;33.23
42067;BME280;27734;47.028;28.820;2023-05-24T11:43:51;100119.45;;;28.30;33.07
42067;BME280;27734;47.028;28.820;2023-05-24T11:46:21;100119.31;;;28.33;33.20
42067;BME280;27734;47.028;28.820;2023-05-24T11:48:58;100118.69;;;28.26;32.90
42067;BME280;27734;47.028;28.820;2023-05-24T11:51:29;100124.78;;;28.31;33.00
42067;BME280;27734;47.028;28.820;2023-05-24T11:54:09;100121.61;;;28.42;32.99
42067;BME280;27734;47.028;28.820;2023-05-24T11:56:38;100124.83;;;28.50;32.65
42067;BME280;27734;47.028;28.820;2023-05-24T11:59:20;100124.56;;;28.57;33.08
42067;BME280;27734;47.028;28.820;2023-05-24T12:01:53;100126.67;;;28.71;32.94
42067;BME280;27734;47.028;28.820;2023-05-24T12:04:27;100119.44;;;28.71;32.55
42067;BME280;27734;47.028;28.820;2023-05-24T12:07:00;100110.19;;;28.77;32.59
42067;BME280;27734;47.028;28.820;2023-05-24T12:09:33;100106.52;;;28.78;32.30
42067;BME280;27734;47.028;28.820;2023-05-24T12:12:06;100110.05;;;28.80;32.18
42067;BME280;27734;47.028;28.820;2023-05-24T12:14:44;100101.95;;;28.80;32.49
42067;BME280;27734;47.028;28.820;2023-05-24T12:17:20;100101.23;;;28.95;32.67
42067;BME280;27734;47.028;28.820;2023-05-24T12:19:53;100091.73;;;29.05;31.98
42067;BME280;27734;47.028;28.820;2023-05-24T12:22:39;100086.68;;;29.17;32.32
42067;BME280;27734;47.028;28.820;2023-05-24T12:28:03;100094.83;;;29.36;31.83
42067;BME280;27734;47.028;28.820;2023-05-24T12:30:56;100094.67;;;29.39;31.45
42067;BME280;27734;47.028;28.820;2023-05-24T12:33:36;100082.82;;;29.42;31.92
42067;BME280;27734;47.028;28.820;2023-05-24T12:36:13;100083.64;;;29.44;31.75
42067;BME280;27734;47.028;28.820;2023-05-24T12:38:42;100083.05;;;29.37;31.76
42067;BME280;27734;47.028;28.820;2023-05-24T12:41:12;100088.44;;;29.18;32.01
42067;BME280;27734;47.028;28.820;2023-05-24T12:43:42;100092.02;;;28.99;32.20
42067;BME280;27734;47.028;28.820;2023-05-24T12:46:14;100105.94;;;28.71;32.96
42067;BME280;27734;47.028;28.820;2023-05-24T12:48:55;100102.80;;;28.61;33.25
42067;BME280;27734;47.028;28.820;2023-05-24T12:51:34;100107.95;;;28.45;33.38
42067;BME280;27734;47.028;28.820;2023-05-24T12:54:11;100109.85;;;28.43;33.64
42067;BME280;27734;47.028;28.820;2023-05-24T12:56:51;100116.60;;;28.54;33.67
42067;BME280;27734;47.028;28.820;2023-05-24T12:59:25;100109.72;;;28.67;33.77
42067;BME280;27734;47.028;28.820;2023-05-24T13:02:20;100101.55;;;28.68;34.07
42067;BME280;27734;47.028;28.820;2023-05-24T13:04:59;100105.35;;;28.64;32.93
42067;BME280;27734;47.028;28.820;2023-05-24T13:07:33;100093.38;;;28.70;33.34
42067;BME280;27734;47.028;28.820;2023-05-24T13:10:06;100102.74;;;28.82;34.06
42067;BME280;27734;47.028;28.820;2023-05-24T13:12:34;100106.92;;;28.89;33.23
42067;BME280;27734;47.028;28.820;2023-05-24T13:15:06;100109.91;;;29.02;33.30
42067;BME280;27734;47.028;28.820;2023-05-24T13:17:39;100114.42;;;29.01;32.38
42067;BME280;27734;47.028;28.820;2023-05-24T13:20:09;100112.91;;;28.96;32.29